»·PEaware :: ENY710 KPSP-KPHX

ENY710 :: KPSP-KPHX

FLIGHT INFORMATION

Flight Status: Arrived
Operator: Unknown
More flights by this operator :: More flights under this callsign
Pilot: Ryan C. (15122)
Aircraft: Unknown
(E140)
More flights by this aircraft type
Origin: KPSP Palm Springs Intl
United States
Destination: KPHX Phoenix Sky Harbor Intl
United States
More flights between these airports :: More routes between these airports
Route: CATH1 PSP BLH HYDRR1
File this flight plan on PilotEdge
Remarks:
Altitude:
(Current/Filed)
29,000ft
Speed:
(Current/Filed)
450kts
Departed: 15-Jul-20 05:34 PM
Arrived: 15-Jul-20 06:21 PM
Distance/Time
Traveled:
226nm/0:47
Distance/Time
To Go:
Arrived

Flight Plot

Page will automatically refresh every two minutes.


Map Options




Map Legend


Flown Route
Filed Route
Departure Airport
Arrival Airport
Navaid (VOR, NDB)
Fix

Horizontal Profiles

Position Reports

Time Latitude Longitude Heading Altitude Ground
Speed
15-Jul-20 17:15 33.824274 -116.507690 210 483ft 0kts
15-Jul-20 17:16 33.824274 -116.507690 210 483ft 0kts
15-Jul-20 17:17 33.824274 -116.507690 210 483ft 0kts
15-Jul-20 17:18 33.824274 -116.507690 210 483ft 0kts
15-Jul-20 17:19 33.824274 -116.507690 210 483ft 0kts
15-Jul-20 17:20 33.824274 -116.507690 210 483ft 0kts
15-Jul-20 17:21 33.824274 -116.507690 210 483ft 0kts
15-Jul-20 17:22 33.824274 -116.507690 210 483ft 0kts
15-Jul-20 17:23 33.824396 -116.507631 194 483ft 2kts
15-Jul-20 17:24 33.824992 -116.507613 179 483ft 1kts
15-Jul-20 17:26 33.825014 -116.507614 179 483ft 0kts
15-Jul-20 17:27 33.824948 -116.507580 140 483ft 1kts
15-Jul-20 17:28 33.825039 -116.506925 62 483ft 0kts
15-Jul-20 17:29 33.824942 -116.505480 142 483ft 9kts
15-Jul-20 17:30 33.822275 -116.503099 143 483ft 12kts
15-Jul-20 17:31 33.819358 -116.500518 143 483ft 12kts
15-Jul-20 17:32 33.818526 -116.499038 89 483ft 0kts
15-Jul-20 17:33 33.819855 -116.498914 323 483ft 14kts
15-Jul-20 17:34 33.842510 -116.520515 322 1671ft 173kts
15-Jul-20 17:35 33.889675 -116.565944 322 4287ft 255kts
15-Jul-20 17:36 33.938969 -116.529920 97 8027ft 283kts
15-Jul-20 17:37 33.912059 -116.440597 100 11501ft 296kts
15-Jul-20 17:38 33.894300 -116.341578 101 14618ft 311kts
15-Jul-20 17:39 33.875267 -116.237070 101 17423ft 327kts
15-Jul-20 17:40 33.854702 -116.124746 101 19276ft 367kts
15-Jul-20 17:40 33.835475 -116.020310 101 21041ft 389kts
15-Jul-20 17:42 33.807456 -115.869005 102 23628ft 406kts
15-Jul-20 17:42 33.786592 -115.757058 102 25334ft 418kts
15-Jul-20 17:43 33.760619 -115.618534 102 27248ft 430kts
15-Jul-20 17:45 33.728983 -115.451101 103 28760ft 459kts
15-Jul-20 17:45 33.704489 -115.322288 103 28759ft 464kts
15-Jul-20 17:46 33.675950 -115.173255 103 28791ft 463kts
15-Jul-20 17:47 33.647386 -115.024760 106 28779ft 431kts
15-Jul-20 17:48 33.619586 -114.881812 106 28796ft 451kts
15-Jul-20 17:49 33.590532 -114.732647 106 28790ft 457kts
15-Jul-20 17:50 33.561568 -114.583451 106 28790ft 454kts
15-Jul-20 17:51 33.532860 -114.436563 106 27623ft 445kts
15-Jul-20 17:52 33.504485 -114.292373 106 26119ft 442kts
15-Jul-20 17:53 33.475560 -114.146315 106 24808ft 445kts
15-Jul-20 17:54 33.446947 -114.003026 106 24793ft 431kts
15-Jul-20 17:55 33.419235 -113.865039 106 24442ft 417kts
15-Jul-20 17:56 33.392595 -113.732889 106 22916ft 398kts
15-Jul-20 17:57 33.366699 -113.605199 106 21403ft 391kts
15-Jul-20 17:58 33.340919 -113.478750 106 19899ft 387kts
15-Jul-20 17:59 33.318853 -113.354091 104 18545ft 377kts
15-Jul-20 18:00 33.297720 -113.231990 103 17235ft 371kts
15-Jul-20 18:01 33.280736 -113.114207 102 16258ft 344kts
15-Jul-20 18:02 33.276139 -113.000620 91 15349ft 342kts
15-Jul-20 18:03 33.278912 -112.885268 89 14514ft 350kts
15-Jul-20 18:04 33.285417 -112.769528 83 13807ft 343kts
15-Jul-20 18:05 33.295952 -112.657499 83 13104ft 335kts
15-Jul-20 18:06 33.306230 -112.547074 83 12403ft 331kts
15-Jul-20 18:07 33.316161 -112.439317 83 11694ft 316kts
15-Jul-20 18:08 33.325551 -112.336617 83 10991ft 308kts
15-Jul-20 18:09 33.334921 -112.233764 83 10291ft 311kts
15-Jul-20 18:10 33.344184 -112.131141 83 9586ft 308kts
15-Jul-20 18:11 33.346817 -112.028481 90 8258ft 307kts
15-Jul-20 18:12 33.345724 -111.932877 88 6998ft 248kts
15-Jul-20 18:13 33.346723 -111.862294 88 6635ft 190kts
15-Jul-20 18:14 33.368077 -111.819254 356 5395ft 164kts
15-Jul-20 18:15 33.413017 -111.822044 340 3776ft 161kts
15-Jul-20 18:16 33.438587 -111.857563 303 2995ft 134kts
15-Jul-20 18:17 33.440676 -111.902087 271 2641ft 136kts
15-Jul-20 18:18 33.440755 -111.946711 272 1898ft 133kts
15-Jul-20 18:19 33.440811 -111.990365 271 1207ft 128kts
15-Jul-20 18:20 33.440003 -112.010879 168 1137ft 10kts
15-Jul-20 18:21 33.439727 -112.010449 98 1137ft 8kts
15-Jul-20 18:22 33.438988 -112.006686 90 1137ft 12kts
15-Jul-20 18:23 33.439024 -112.001380 89 1137ft 16kts
15-Jul-20 18:24 33.437857 -111.998291 180 1137ft 10kts
15-Jul-20 18:25 33.437549 -111.998802 269 1137ft 0kts
15-Jul-20 18:26 33.437549 -111.998802 269 1137ft 0kts
15-Jul-20 18:27 33.437549 -111.998802 269 1137ft 0kts
15-Jul-20 18:28 33.437549 -111.998802 269 1137ft 0kts
15-Jul-20 18:29 33.437549 -111.998802 269 1137ft 0kts
15-Jul-20 18:30 33.437549 -111.998802 269 1137ft 0kts
15-Jul-20 18:31 33.437549 -111.998802 269 1137ft 0kts
15-Jul-20 18:32 33.437549 -111.998802 269 1137ft 0kts
15-Jul-20 18:33 33.437549 -111.998802 269 1137ft 0kts
15-Jul-20 18:34 33.437549 -111.998802 269 1137ft 0kts

Navigation Log

Ident Type
Flight plan parsing failed, navigation log unavailable